Time;durP1;ratioP1;P1;durP2;ratioP2;P2;SDS_P1;SDS_P2;PMS_P1;PMS_P2;Temp;Humidity;BMP_temperature;BMP_pressure;BME280_temperature;BME280_humidity;BME280_pressure;Samples;Min_cycle;Max_cycle;Signal;HPM_P1;HPM_P2
2022/04/24 00:01:27;;;;;;;;;0.00;0.00;;;;;12.16;55.89;97537.91;5078362;27;45434;-59
2022/04/24 00:03:53;;;;;;;;;0.00;0.00;;;;;12.18;55.83;97556.31;5071695;27;45525;-59
2022/04/24 00:06:19;;;;;;;;;0.00;0.00;;;;;12.17;56.04;97550.19;5077677;27;46128;-59
2022/04/24 00:08:44;;;;;;;;;0.00;0.00;;;;;12.17;56.36;97544.06;5070039;27;45416;-59
2022/04/24 00:11:10;;;;;;;;;0.00;0.00;;;;;12.16;56.10;97550.28;5076684;27;45465;-59
2022/04/24 00:13:38;;;;;;;;;0.00;0.00;;;;;12.14;56.45;97544.25;5071340;28;45456;-59
2022/04/24 00:16:06;;;;;;;;;0.00;0.00;;;;;12.13;56.49;97548.69;5069743;28;45390;-59
2022/04/24 00:18:32;;;;;;;;;0.00;0.00;;;;;12.12;56.46;97544.38;5071247;27;45220;-60
2022/04/24 00:20:58;;;;;;;;;0.00;0.00;;;;;12.11;56.82;97544.47;5077274;27;45392;-59
2022/04/24 00:23:23;;;;;;;;;1.25;0.00;;;;;12.10;57.03;97538.34;5070857;28;45551;-59
2022/04/24 00:25:49;;;;;;;;;0.00;0.00;;;;;12.09;56.83;97538.44;5076330;28;46260;-59
2022/04/24 00:28:15;;;;;;;;;0.00;0.00;;;;;12.08;56.94;97542.03;5066715;28;45402;-59
2022/04/24 00:30:40;;;;;;;;;0.00;0.00;;;;;12.08;56.80;97542.91;5068609;28;45350;-59
2022/04/24 00:33:05;;;;;;;;;0.00;0.00;;;;;12.07;56.85;97553.56;5072429;27;45530;-59
2022/04/24 00:35:31;;;;;;;;;0.00;0.00;;;;;12.07;57.18;97556.22;5073792;28;45657;-59
2022/04/24 00:37:57;;;;;;;;;0.00;0.00;;;;;12.04;57.21;97553.81;5072935;27;45393;-59
2022/04/24 00:40:23;;;;;;;;;1.00;0.00;;;;;12.03;57.88;97558.25;5074470;27;45403;-59
2022/04/24 00:42:49;;;;;;;;;0.00;0.00;;;;;12.00;57.71;97550.53;5073793;28;45384;-59
2022/04/24 00:45:15;;;;;;;;;0.00;0.00;;;;;11.96;57.52;97554.34;5075817;27;46183;-59
2022/04/24 00:47:43;;;;;;;;;0.00;0.00;;;;;11.91;57.79;97553.81;5075047;27;45464;-59
2022/04/24 00:50:09;;;;;;;;;0.00;0.00;;;;;11.91;57.98;97547.69;5077457;28;45388;-59
2022/04/24 00:52:36;;;;;;;;;0.00;0.00;;;;;11.88;58.31;97544.34;5070670;27;45327;-59
2022/04/24 00:55:02;;;;;;;;;0.00;0.00;;;;;11.86;58.43;97548.03;5077519;27;45423;-59
2022/04/24 00:57:28;;;;;;;;;0.00;0.00;;;;;11.84;59.26;97557.84;5075255;28;45342;-59
2022/04/24 00:59:53;;;;;;;;;0.00;0.00;;;;;11.83;59.08;97548.25;5069982;28;45213;-59
2022/04/24 01:02:20;;;;;;;;;0.00;0.00;;;;;11.81;58.94;97542.22;5073025;28;45373;-59
2022/04/24 01:04:45;;;;;;;;;0.00;0.00;;;;;11.80;59.18;97554.56;5074362;28;45465;-59
2022/04/24 01:07:11;;;;;;;;;0.00;0.00;;;;;11.79;59.48;97549.41;5072546;28;45298;-59
2022/04/24 01:09:37;;;;;;;;;0.00;0.00;;;;;11.79;59.09;97544.97;5072195;27;45294;-59
2022/04/24 01:12:04;;;;;;;;;0.00;0.00;;;;;11.78;59.25;97542.44;5074948;27;45527;-59
2022/04/24 01:14:31;;;;;;;;;0.00;0.00;;;;;11.77;59.24;97540.72;5072978;28;45457;-59
2022/04/24 01:16:57;;;;;;;;;0.00;0.00;;;;;11.78;59.38;97547.72;5074856;28;45454;-59
2022/04/24 01:19:25;;;;;;;;;0.00;0.00;;;;;11.78;59.56;97551.19;5072063;27;45376;-59
2022/04/24 01:21:51;;;;;;;;;0.00;0.00;;;;;11.78;59.07;97551.19;5072958;28;45419;-59
2022/04/24 01:24:20;;;;;;;;;0.00;0.00;;;;;11.78;58.72;97556.47;5071982;27;45500;-59
2022/04/24 01:26:46;;;;;;;;;1.00;0.00;;;;;11.76;59.74;97574.22;5090380;27;45499;-59
2022/04/24 01:29:11;;;;;;;;;0.00;0.00;;;;;11.77;59.29;97575.91;5074258;28;45353;-59
2022/04/24 01:31:41;;;;;;;;;0.00;0.00;;;;;11.79;59.07;97567.88;5075908;27;45431;-59
2022/04/24 01:34:07;;;;;;;;;0.00;0.00;;;;;11.79;59.30;97576.66;5067917;28;46732;-59
2022/04/24 01:36:33;;;;;;;;;0.50;0.00;;;;;11.80;58.26;97573.06;5075803;27;45484;-59
2022/04/24 01:38:58;;;;;;;;;0.00;0.00;;;;;11.79;58.61;97575.81;5071039;27;45511;-59
2022/04/24 01:41:24;;;;;;;;;0.00;0.00;;;;;11.80;59.37;97582.78;5076522;28;45446;-59
2022/04/24 01:43:49;;;;;;;;;0.00;0.00;;;;;11.82;59.10;97594.91;5071162;27;45483;-59
2022/04/24 01:46:15;;;;;;;;;0.00;0.00;;;;;11.85;58.40;97581.50;5076738;27;45371;-59
2022/04/24 01:48:41;;;;;;;;;0.00;0.00;;;;;11.86;58.69;97577.91;5074152;27;45460;-59
2022/04/24 01:51:08;;;;;;;;;0.00;0.00;;;;;11.88;58.88;97583.94;5076147;27;45377;-59
2022/04/24 01:53:35;;;;;;;;;0.00;0.00;;;;;11.91;58.73;97588.13;5065563;27;45383;-58
2022/04/24 01:56:06;;;;;;;;;0.00;0.00;;;;;11.92;58.72;97579.25;5062792;28;45368;-58
2022/04/24 01:58:32;;;;;;;;;0.00;0.00;;;;;11.93;58.91;97588.88;5067285;28;45400;-58
2022/04/24 02:00:58;;;;;;;;;0.00;0.00;;;;;11.96;58.85;97598.38;5066516;27;45482;-59
2022/04/24 02:03:25;;;;;;;;;0.00;0.00;;;;;11.97;58.71;97598.28;5070224;27;46254;-59
2022/04/24 02:05:51;;;;;;;;;0.00;0.00;;;;;11.99;58.89;97600.81;5075817;28;45360;-59
2022/04/24 02:08:16;;;;;;;;;0.00;0.00;;;;;12.00;58.66;97600.72;5066040;27;45381;-59
2022/04/24 02:10:42;;;;;;;;;0.00;0.00;;;;;11.99;58.75;97599.03;5076493;27;45301;-59
2022/04/24 02:13:09;;;;;;;;;0.00;0.00;;;;;12.01;59.66;97604.19;5069145;27;45703;-59
2022/04/24 02:15:35;;;;;;;;;0.00;0.00;;;;;12.00;59.97;97606.00;5075637;27;45387;-59
2022/04/24 02:18:01;;;;;;;;;0.50;0.00;;;;;11.99;60.52;97603.47;5069594;27;45437;-59
2022/04/24 02:20:28;;;;;;;;;1.00;0.00;;;;;11.93;61.52;97594.16;5075058;27;45572;-59
2022/04/24 02:22:55;;;;;;;;;1.00;0.00;;;;;11.86;61.61;97604.31;5069359;27;45551;-59
2022/04/24 02:25:22;;;;;;;;;0.00;0.00;;;;;11.83;62.53;97611.59;5075936;27;45352;-59
2022/04/24 02:27:47;;;;;;;;;0.00;0.00;;;;;11.77;62.34;97604.09;5069611;27;45356;-59
2022/04/24 02:30:13;;;;;;;;;0.50;0.00;;;;;11.73;62.60;97603.44;5071868;27;45387;-59
2022/04/24 02:32:39;;;;;;;;;0.00;0.00;;;;;11.70;62.83;97613.38;5071070;27;45551;-59
2022/04/24 02:35:05;;;;;;;;;0.00;0.00;;;;;11.69;63.26;97622.25;5072683;27;45278;-59
2022/04/24 02:37:32;;;;;;;;;2.00;0.00;;;;;11.67;62.46;97619.72;5086966;27;45523;-58
2022/04/24 02:39:58;;;;;;;;;0.00;0.00;;;;;11.65;63.24;97621.59;5068652;27;45360;-59
2022/04/24 02:42:23;;;;;;;;;0.00;0.00;;;;;11.67;62.14;97618.88;5071713;27;46067;-59
2022/04/24 02:44:49;;;;;;;;;0.00;0.00;;;;;11.66;62.24;97618.03;5074917;27;45416;-59
2022/04/24 02:47:14;;;;;;;;;0.00;0.00;;;;;11.68;61.94;97617.91;5073726;27;45541;-59
2022/04/24 02:49:39;;;;;;;;;0.00;0.00;;;;;11.70;61.52;97619.50;5067055;28;45531;-59
2022/04/24 02:52:05;;;;;;;;;0.00;0.00;;;;;11.72;62.18;97608.84;5073308;28;46391;-59
2022/04/24 02:54:30;;;;;;;;;0.00;0.00;;;;;11.72;62.25;97603.56;5068112;28;45413;-58
2022/04/24 02:56:56;;;;;;;;;0.00;0.00;;;;;11.71;62.74;97602.72;5074233;28;45326;-59
2022/04/24 02:59:22;;;;;;;;;0.00;0.00;;;;;11.69;62.35;97598.50;5070828;28;45431;-59
2022/04/24 03:01:48;;;;;;;;;0.00;0.00;;;;;11.68;63.14;97610.84;5074341;27;45570;-59
2022/04/24 03:04:14;;;;;;;;;0.00;0.00;;;;;11.67;62.79;97608.31;5068460;28;45432;-59
2022/04/24 03:06:39;;;;;;;;;0.00;0.00;;;;;11.66;63.41;97604.81;5074322;27;45379;-59
2022/04/24 03:09:05;;;;;;;;;0.00;0.00;;;;;11.68;63.24;97607.34;5069627;28;45407;-58
2022/04/24 03:11:31;;;;;;;;;0.00;0.00;;;;;11.70;63.22;97603.66;5075147;28;46482;-58
2022/04/24 03:13:57;;;;;;;;;0.00;0.00;;;;;11.71;61.81;97602.72;5069835;27;45279;-59
2022/04/24 03:16:23;;;;;;;;;0.00;0.00;;;;;11.73;62.10;97598.16;5075338;28;45395;-59
2022/04/24 03:18:48;;;;;;;;;0.00;0.00;;;;;11.73;61.56;97597.34;5068624;27;45518;-59
2022/04/24 03:21:13;;;;;;;;;0.00;0.00;;;;;11.74;62.13;97596.34;5074526;28;46364;-59
2022/04/24 03:23:39;;;;;;;;;0.00;0.00;;;;;11.75;62.43;97604.16;5068233;27;45447;-59
2022/04/24 03:26:05;;;;;;;;;0.00;0.00;;;;;11.77;62.41;97599.66;5075372;27;45369;-59
2022/04/24 03:28:30;;;;;;;;;0.00;0.00;;;;;11.78;62.96;97603.16;5069252;28;45500;-58
2022/04/24 03:30:56;;;;;;;;;0.00;0.00;;;;;11.77;63.54;97606.75;5071053;27;45529;-59
2022/04/24 03:33:22;;;;;;;;;0.00;0.00;;;;;11.74;62.92;97599.84;5073584;27;45406;-59
2022/04/24 03:35:47;;;;;;;;;0.00;0.00;;;;;11.71;62.84;97609.78;5075006;28;45404;-59
2022/04/24 03:38:12;;;;;;;;;0.00;0.00;;;;;11.67;63.11;97614.44;5074230;27;45484;-58
2022/04/24 03:40:39;;;;;;;;;0.75;0.00;;;;;11.64;63.62;97616.44;5076395;28;46023;-59
2022/04/24 03:43:04;;;;;;;;;0.00;0.00;;;;;11.63;63.82;97620.00;5075172;27;45523;-59
2022/04/24 03:45:30;;;;;;;;;0.00;0.00;;;;;11.63;63.71;97617.38;5056700;28;45432;-59
2022/04/24 03:47:56;;;;;;;;;1.00;1.00;;;;;11.65;63.63;97618.97;5072434;28;45496;-59
2022/04/24 03:50:21;;;;;;;;;1.00;1.00;;;;;11.65;63.71;97612.84;5071459;28;45752;-59
2022/04/24 03:52:47;;;;;;;;;1.75;0.00;;;;;11.63;64.15;97615.59;5074858;27;45631;-58
2022/04/24 03:55:12;;;;;;;;;0.00;0.00;;;;;11.62;64.48;97626.25;5072194;28;45322;-59
2022/04/24 03:57:38;;;;;;;;;0.25;0.25;;;;;11.60;64.07;97633.41;5072122;28;45509;-59
2022/04/24 04:00:07;;;;;;;;;0.00;0.00;;;;;11.58;64.44;97638.78;5077816;27;46233;-59
2022/04/24 04:02:49;;;;;;;;;0.00;0.00;;;;;11.58;64.89;97638.78;5073578;28;45507;-59
2022/04/24 04:05:18;;;;;;;;;1.00;1.00;;;;;11.59;65.38;97639.63;5074402;28;45408;-59
2022/04/24 04:07:43;;;;;;;;;0.00;0.00;;;;;11.59;65.50;97640.50;5070316;28;45562;-59
2022/04/24 04:10:09;;;;;;;;;0.00;0.00;;;;;11.60;65.90;97633.41;5074385;28;45500;-59
2022/04/24 04:12:34;;;;;;;;;0.25;0.25;;;;;11.59;65.64;97652.84;5075600;27;45416;-58
2022/04/24 04:15:09;;;;;;;;;0.00;0.00;;;;;11.57;64.75;97654.72;5077899;27;45498;-59
2022/04/24 04:17:35;;;;;;;;;0.00;0.00;;;;;11.46;65.73;97653.69;5074812;27;45530;-59
2022/04/24 04:20:00;;;;;;;;;0.00;0.00;;;;;11.36;65.86;97655.25;5075251;28;46443;-59
2022/04/24 04:22:26;;;;;;;;;0.00;0.00;;;;;11.32;66.10;97651.13;5072448;27;45426;-59
2022/04/24 04:24:52;;;;;;;;;0.50;0.00;;;;;11.33;66.67;97651.97;5075698;28;45473;-59
2022/04/24 04:27:19;;;;;;;;;0.00;0.00;;;;;11.34;66.88;97651.00;5073870;27;45380;-59
2022/04/24 04:29:45;;;;;;;;;1.00;1.00;;;;;11.35;66.97;97655.34;5071162;28;46309;-59
2022/04/24 04:32:10;;;;;;;;;0.00;0.00;;;;;11.35;67.07;97656.19;5075324;27;45521;-59
2022/04/24 04:34:36;;;;;;;;;1.00;0.75;;;;;11.33;66.83;97655.44;5072288;28;45380;-59
2022/04/24 04:37:01;;;;;;;;;1.75;1.00;;;;;11.29;68.02;97658.38;5075333;28;45443;-58
2022/04/24 04:39:27;;;;;;;;;1.50;0.00;;;;;11.21;66.38;97666.81;5073936;28;45418;-59
2022/04/24 04:41:52;;;;;;;;;1.00;1.00;;;;;11.09;67.13;97678.16;5090484;27;45404;-59
2022/04/24 04:44:18;;;;;;;;;2.00;0.25;;;;;10.96;68.75;97680.75;5075322;28;45221;-59
2022/04/24 04:46:43;;;;;;;;;0.00;0.00;;;;;10.92;69.71;97688.94;5076447;28;45437;-59
2022/04/24 04:49:09;;;;;;;;;1.00;1.00;;;;;10.85;70.64;97688.50;5068232;28;46295;-59
2022/04/24 04:51:34;;;;;;;;;1.00;1.00;;;;;10.80;71.32;97690.59;5076664;28;45422;-59
2022/04/24 04:54:00;;;;;;;;;2.00;1.00;;;;;10.76;71.77;97692.56;5071120;28;45368;-58
2022/04/24 04:56:25;;;;;;;;;2.00;2.00;;;;;10.72;72.24;97692.88;5077082;28;45457;-59
2022/04/24 04:58:51;;;;;;;;;1.00;1.00;;;;;10.69;72.66;97698.34;5071782;27;45640;-58
2022/04/24 05:01:16;;;;;;;;;1.50;1.50;;;;;10.67;71.57;97698.44;5076926;28;45494;-59
2022/04/24 05:03:42;;;;;;;;;0.50;0.50;;;;;10.66;72.17;97699.38;5070869;27;45467;-58
2022/04/24 05:06:07;;;;;;;;;0.50;0.50;;;;;10.65;71.73;97699.47;5067543;28;45318;-59
2022/04/24 05:08:33;;;;;;;;;0.00;0.00;;;;;10.65;71.99;97704.75;5070881;27;45769;-58
2022/04/24 05:10:59;;;;;;;;;2.75;1.00;;;;;10.68;71.80;97704.56;5076694;27;45309;-59
2022/04/24 05:13:24;;;;;;;;;1.75;1.75;;;;;10.71;72.08;97707.84;5070630;27;45445;-59
2022/04/24 05:15:50;;;;;;;;;1.75;1.00;;;;;10.77;71.75;97706.59;5076634;27;45411;-59
2022/04/24 05:18:15;;;;;;;;;1.00;1.00;;;;;10.83;71.58;97711.47;5070405;28;45622;-59
2022/04/24 05:20:43;;;;;;;;;1.00;1.00;;;;;10.89;71.90;97711.09;5076734;27;45446;-59
2022/04/24 05:23:09;;;;;;;;;1.00;1.00;;;;;10.96;72.24;97720.28;5070771;27;45499;-59
2022/04/24 05:25:35;;;;;;;;;0.00;0.00;;;;;11.03;72.27;97718.13;5077018;27;45340;-58
2022/04/24 05:28:03;;;;;;;;;0.00;0.00;;;;;11.12;72.62;97715.72;5073784;27;45640;-59
2022/04/24 05:30:29;;;;;;;;;0.00;0.00;;;;;11.23;72.08;97720.28;5076904;27;45342;-59
2022/04/24 05:32:55;;;;;;;;;0.00;0.00;;;;;11.34;71.03;97720.47;5076506;28;45314;-59
2022/04/24 05:35:21;;;;;;;;;0.00;0.00;;;;;11.42;70.95;97731.34;5076467;27;45468;-59
2022/04/24 05:37:50;;;;;;;;;2.00;2.00;;;;;11.34;71.11;97711.69;5092312;27;45413;-59
2022/04/24 05:40:17;;;;;;;;;1.00;1.00;;;;;11.23;70.90;97724.75;5076510;27;45455;-59
2022/04/24 05:42:54;;;;;;;;;1.50;1.50;;;;;11.21;71.38;97726.66;5076618;27;45418;-58
2022/04/24 05:45:24;;;;;;;;;2.25;0.00;;;;;11.25;71.58;97728.97;5076586;27;45514;-59
2022/04/24 05:47:51;;;;;;;;;1.00;1.00;;;;;11.33;71.12;97720.56;5076340;27;46482;-59
2022/04/24 05:50:17;;;;;;;;;0.00;0.00;;;;;11.44;71.08;97731.25;5063141;27;45441;-59
2022/04/24 05:52:43;;;;;;;;;1.00;1.00;;;;;11.51;71.01;97725.47;5063253;28;45523;-59
2022/04/24 05:55:09;;;;;;;;;0.00;0.00;;;;;11.52;71.10;97729.81;5075708;27;45482;-59
2022/04/24 05:57:35;;;;;;;;;3.00;1.00;;;;;11.53;71.07;97739.41;5076178;28;46348;-59
2022/04/24 06:00:02;;;;;;;;;0.00;0.00;;;;;11.52;71.29;97732.44;5076357;27;45372;-59
2022/04/24 06:02:27;;;;;;;;;0.75;0.75;;;;;11.55;71.08;97736.69;5076852;27;45324;-59
2022/04/24 06:04:54;;;;;;;;;0.00;0.00;;;;;11.59;70.63;97738.16;5076329;28;45222;-59
2022/04/24 06:07:20;;;;;;;;;0.75;0.75;;;;;11.68;70.40;97742.00;5074761;28;47181;-59
2022/04/24 06:09:45;;;;;;;;;0.50;0.50;;;;;11.77;69.70;97739.59;5076208;27;45403;-59
2022/04/24 06:12:10;;;;;;;;;2.50;0.25;;;;;11.88;69.33;97745.03;5076401;28;45458;-59
2022/04/24 06:14:36;;;;;;;;;2.75;2.00;;;;;11.97;69.16;97740.91;5075900;28;45384;-59
2022/04/24 06:17:03;;;;;;;;;2.00;0.00;;;;;12.05;69.26;97757.09;5076102;27;45705;-59
2022/04/24 06:19:29;;;;;;;;;0.60;0.60;;;;;12.12;68.98;97752.22;5076200;28;45408;-59
2022/04/24 06:21:55;;;;;;;;;0.50;0.50;;;;;12.16;68.88;97759.84;5076099;27;45531;-59
2022/04/24 06:24:20;;;;;;;;;0.25;0.25;;;;;12.16;68.35;97749.28;5075852;27;45499;-59
2022/04/24 06:26:46;;;;;;;;;0.75;0.75;;;;;12.10;68.64;97765.53;5076223;27;46559;-59
2022/04/24 06:29:11;;;;;;;;;0.50;0.50;;;;;12.05;68.60;97762.38;5075950;27;45289;-59
2022/04/24 06:31:37;;;;;;;;;1.50;1.00;;;;;11.95;69.64;97771.84;5076314;27;45373;-58
2022/04/24 06:34:02;;;;;;;;;1.75;0.50;;;;;11.81;69.04;97777.22;5075942;27;45447;-59
2022/04/24 06:36:28;;;;;;;;;1.00;1.00;;;;;11.64;69.79;97780.09;5075478;27;45398;-59
2022/04/24 06:38:53;;;;;;;;;0.00;0.00;;;;;11.56;70.13;97785.88;5075443;27;45573;-59
2022/04/24 06:41:19;;;;;;;;;1.00;1.00;;;;;11.56;70.46;97777.13;5076112;27;45383;-59
2022/04/24 06:43:44;;;;;;;;;1.00;1.00;;;;;11.57;71.08;97784.06;5075485;27;45451;-59
2022/04/24 06:46:09;;;;;;;;;0.00;0.00;;;;;11.48;71.04;97793.44;5075652;27;46541;-58
2022/04/24 06:48:36;;;;;;;;;0.50;0.50;;;;;11.42;70.14;97796.47;5075601;27;45415;-58
2022/04/24 06:51:02;;;;;;;;;1.25;0.25;;;;;11.40;71.21;97798.34;5075410;27;45446;-59
2022/04/24 06:53:28;;;;;;;;;1.00;1.00;;;;;11.40;70.48;97795.72;5075466;27;45445;-58
2022/04/24 06:55:53;;;;;;;;;1.00;1.00;;;;;11.36;70.82;97796.88;5075486;27;45559;-59
2022/04/24 06:58:19;;;;;;;;;1.25;0.25;;;;;11.37;71.30;97796.78;5075521;27;45373;-59
2022/04/24 07:00:48;;;;;;;;;0.75;0.75;;;;;11.41;71.26;97798.25;5075799;27;45394;-58
2022/04/24 07:03:21;;;;;;;;;0.00;0.00;;;;;11.49;71.27;97795.97;5075223;28;45448;-58
2022/04/24 07:05:48;;;;;;;;;0.00;0.00;;;;;11.54;71.05;97793.06;5070191;27;45420;-59
2022/04/24 07:08:13;;;;;;;;;0.00;0.00;;;;;11.51;70.99;97795.88;5077120;27;45451;-58
2022/04/24 07:10:39;;;;;;;;;1.00;1.00;;;;;11.48;70.92;97804.84;5078884;27;45463;-60
2022/04/24 07:13:05;;;;;;;;;1.00;1.00;;;;;11.53;70.53;97807.19;5078193;28;45328;-58
2022/04/24 07:15:35;;;;;;;;;0.50;0.50;;;;;11.59;70.77;97803.28;5078393;28;45518;-58
2022/04/24 07:18:01;;;;;;;;;0.00;0.00;;;;;11.62;69.55;97803.94;5078106;27;45427;-58
2022/04/24 07:20:29;;;;;;;;;0.75;0.75;;;;;11.64;70.42;97814.41;5078306;27;45344;-58
2022/04/24 07:23:04;;;;;;;;;0.50;0.00;;;;;11.67;69.63;97812.41;5078342;27;45491;-58
2022/04/24 07:25:35;;;;;;;;;0.00;0.00;;;;;11.73;69.10;97811.19;5078194;28;45565;-59
2022/04/24 07:28:00;;;;;;;;;0.00;0.00;;;;;11.78;69.06;97819.66;5078164;27;45364;-58
2022/04/24 07:30:26;;;;;;;;;1.00;1.00;;;;;11.78;69.20;97825.78;5078080;27;45396;-61
2022/04/24 07:32:54;;;;;;;;;0.00;0.00;;;;;11.74;69.32;97829.53;5077362;28;45708;-63
2022/04/24 07:35:22;;;;;;;;;1.00;1.00;;;;;11.69;70.14;97823.72;5072631;27;46542;-61
2022/04/24 07:37:48;;;;;;;;;0.00;0.00;;;;;11.74;69.18;97840.09;5076949;28;45473;-61
2022/04/24 07:40:16;;;;;;;;;0.25;0.25;;;;;11.78;69.75;97836.34;5074988;27;45443;-62
2022/04/24 07:42:56;;;;;;;;;0.00;0.00;;;;;11.86;69.90;97842.00;5072268;28;45416;-62
2022/04/24 07:45:33;;;;;;;;;2.00;1.00;;;;;11.90;69.87;97847.06;5076678;28;45504;-61
2022/04/24 07:47:59;;;;;;;;;0.00;0.00;;;;;11.88;69.69;97847.16;5073105;27;45423;-62
2022/04/24 07:50:33;;;;;;;;;4.00;2.00;;;;;11.86;70.17;97842.00;5076968;27;45237;-63
2022/04/24 07:52:58;;;;;;;;;1.00;1.00;;;;;11.84;70.02;97846.53;5076436;28;45359;-61
2022/04/24 07:55:25;;;;;;;;;1.00;1.00;;;;;11.85;69.34;97839.44;5077190;28;45510;-60
2022/04/24 07:57:53;;;;;;;;;1.00;0.00;;;;;11.89;70.66;97833.03;5077437;27;45379;-62
2022/04/24 08:00:21;;;;;;;;;1.00;1.00;;;;;11.98;70.21;97842.97;5077352;27;45579;-63
2022/04/24 08:03:02;;;;;;;;;1.00;1.00;;;;;12.03;70.15;97848.78;5077263;27;45301;-61
2022/04/24 08:05:29;;;;;;;;;0.00;0.00;;;;;12.09;69.96;97845.72;5074976;27;45391;-61
2022/04/24 08:07:57;;;;;;;;;0.80;0.80;;;;;12.14;70.32;97853.34;5077196;28;45467;-63
2022/04/24 08:10:25;;;;;;;;;1.00;1.00;;;;;12.13;69.13;97849.03;5077268;27;45511;-61
2022/04/24 08:12:50;;;;;;;;;1.00;1.00;;;;;12.17;69.28;97851.38;5077365;27;45553;-61
2022/04/24 08:15:16;;;;;;;;;1.00;1.00;;;;;12.24;68.90;97844.69;5077489;27;46255;-63
2022/04/24 08:17:43;;;;;;;;;1.00;1.00;;;;;12.32;69.12;97851.28;5075480;27;45551;-63
2022/04/24 08:20:10;;;;;;;;;0.25;0.25;;;;;12.40;69.10;97864.84;5077108;27;45467;-63
2022/04/24 08:22:40;;;;;;;;;0.00;0.00;;;;;12.45;67.12;97862.72;5077619;27;45386;-63
2022/04/24 08:25:07;;;;;;;;;0.25;0.25;;;;;12.46;67.17;97853.84;5076904;27;46321;-63
2022/04/24 08:27:34;;;;;;;;;0.00;0.00;;;;;12.55;67.53;97858.50;5077146;27;45160;-63
2022/04/24 08:30:00;;;;;;;;;1.00;0.75;;;;;12.65;67.21;97864.00;5077371;27;45446;-63
2022/04/24 08:32:26;;;;;;;;;0.00;0.00;;;;;12.73;66.74;97865.19;5092411;27;45415;-63
2022/04/24 08:34:51;;;;;;;;;0.00;0.00;;;;;12.77;65.97;97858.72;5092266;27;46367;-63
2022/04/24 08:37:17;;;;;;;;;1.00;1.00;;;;;12.82;65.83;97867.19;5076505;28;45299;-63
2022/04/24 08:39:42;;;;;;;;;0.75;0.75;;;;;12.81;65.18;97876.06;5077012;27;45352;-63
2022/04/24 08:42:09;;;;;;;;;2.50;2.50;;;;;12.78;64.69;97872.78;5077001;27;45488;-63
2022/04/24 08:44:36;;;;;;;;;0.25;0.25;;;;;12.80;65.22;97870.88;5077008;27;45567;-61
2022/04/24 08:47:03;;;;;;;;;0.00;0.00;;;;;12.83;64.95;97873.31;5092394;27;45327;-63
2022/04/24 08:49:31;;;;;;;;;0.00;0.00;;;;;12.85;64.71;97877.56;5073629;27;45857;-63
2022/04/24 08:51:59;;;;;;;;;0.25;0.25;;;;;12.88;64.75;97884.44;5073907;28;45510;-63
2022/04/24 08:54:27;;;;;;;;;1.00;0.00;;;;;12.91;64.25;97881.56;5064902;28;46332;-63
2022/04/24 08:56:56;;;;;;;;;1.20;1.00;;;;;12.91;64.03;97885.03;5076291;28;45286;-63
2022/04/24 08:59:22;;;;;;;;;1.75;0.75;;;;;12.93;63.66;97884.94;5075245;28;45512;-63
2022/04/24 09:01:48;;;;;;;;;0.50;0.50;;;;;12.92;63.92;97877.94;5076853;28;45485;-61
2022/04/24 09:04:13;;;;;;;;;0.00;0.00;;;;;13.00;63.66;97891.50;5076086;28;45445;-63
2022/04/24 09:06:40;;;;;;;;;0.00;0.00;;;;;13.09;63.89;97890.84;5075694;28;45673;-63
2022/04/24 09:09:06;;;;;;;;;1.00;0.00;;;;;13.19;62.18;97897.25;5077110;27;45399;-63
2022/04/24 09:11:33;;;;;;;;;0.00;0.00;;;;;13.26;62.36;97895.00;5074869;27;45358;-63
2022/04/24 09:16:53;;;;;;;;;0.80;0.00;;;;;13.48;62.56;97899.63;5062757;28;45451;-63
2022/04/24 09:19:20;;;;;;;;;0.00;0.00;;;;;13.56;62.42;97903.44;5075710;27;45783;-63
2022/04/24 09:21:47;;;;;;;;;0.00;0.00;;;;;13.63;62.27;97906.47;5076341;28;45550;-64
2022/04/24 09:24:12;;;;;;;;;0.00;0.00;;;;;13.72;61.83;97904.97;5063271;27;46448;-79
2022/04/24 09:26:49;;;;;;;;;0.50;0.50;;;;;13.78;61.46;97907.16;5075056;28;45549;-74
2022/04/24 09:29:14;;;;;;;;;0.00;0.00;;;;;13.78;61.36;97904.50;5074115;28;45440;-74
2022/04/24 09:31:47;;;;;;;;;0.00;0.00;;;;;13.78;60.80;97894.75;5075447;27;45399;-75
2022/04/24 09:34:18;;;;;;;;;2.00;0.75;;;;;13.87;60.99;97896.75;5067595;28;46020;-74
2022/04/24 09:36:58;;;;;;;;;0.80;0.80;;;;;13.99;60.30;97895.00;5084796;27;45324;-74
2022/04/24 09:39:28;;;;;;;;;1.00;1.00;;;;;14.11;59.95;97903.84;5091581;27;45486;-66
2022/04/24 09:42:05;;;;;;;;;0.25;0.25;;;;;14.19;60.26;97899.69;5069579;28;45356;-67
2022/04/24 09:44:48;;;;;;;;;0.00;0.00;;;;;14.32;60.13;97905.75;5074881;28;46627;-67
2022/04/24 09:47:18;;;;;;;;;0.80;0.80;;;;;14.49;59.12;97901.88;5070876;28;45423;-65
2022/04/24 09:49:47;;;;;;;;;0.00;0.00;;;;;14.59;58.56;97910.81;5072430;27;45554;-65
2022/04/24 09:52:24;;;;;;;;;0.00;0.00;;;;;14.58;58.05;97909.13;5072521;28;45357;-65
2022/04/24 09:54:54;;;;;;;;;0.00;0.00;;;;;14.57;57.75;97911.94;5147357;22;46068;-67
2022/04/24 09:57:24;;;;;;;;;0.60;0.60;;;;;14.60;57.93;97917.81;5053879;28;45387;-68
2022/04/24 09:59:53;;;;;;;;;1.00;0.00;;;;;14.62;57.86;97921.19;5055409;28;45419;-68
2022/04/24 10:02:20;;;;;;;;;0.00;0.00;;;;;14.61;57.58;97923.97;5055948;28;45483;-68
2022/04/24 10:04:46;;;;;;;;;0.75;0.75;;;;;14.58;58.08;97930.34;5037148;28;45420;-67
2022/04/24 10:07:14;;;;;;;;;0.20;0.20;;;;;14.53;57.86;97932.53;5054273;28;45396;-67
2022/04/24 10:09:42;;;;;;;;;1.00;0.00;;;;;14.49;58.45;97927.56;5055680;28;45254;-68
2022/04/24 10:12:10;;;;;;;;;1.00;1.00;;;;;14.44;58.71;97937.66;5054786;28;45484;-68
2022/04/24 10:15:03;;;;;;;;;2.00;0.75;;;;;14.41;58.67;97944.03;5054375;28;45623;-68
2022/04/24 10:17:46;;;;;;;;;2.40;0.80;;;;;14.39;58.77;97940.63;5054833;28;45447;-68
2022/04/24 10:20:16;;;;;;;;;0.00;0.00;;;;;14.32;58.13;97939.38;5054425;28;45456;-68
2022/04/24 10:22:47;;;;;;;;;2.00;2.00;;;;;14.25;58.71;97944.28;5052834;28;45493;-68
2022/04/24 10:25:15;;;;;;;;;1.00;1.00;;;;;14.27;58.78;97952.97;5052266;28;45890;-68
2022/04/24 10:27:48;;;;;;;;;0.80;0.00;;;;;14.34;58.96;97950.72;5055239;28;45457;-68
2022/04/24 10:30:17;;;;;;;;;0.25;0.25;;;;;14.42;58.50;97955.47;5036197;28;45554;-68
2022/04/24 10:32:46;;;;;;;;;0.00;0.00;;;;;14.46;57.98;97957.78;5053681;28;45472;-64
2022/04/24 10:35:20;;;;;;;;;0.00;0.00;;;;;14.52;57.37;97957.34;5054196;28;45424;-64
2022/04/24 10:37:48;;;;;;;;;1.40;0.80;;;;;14.49;57.92;97960.22;5054798;28;45455;-64
2022/04/24 10:40:18;;;;;;;;;1.00;1.00;;;;;14.59;57.53;97955.06;5054158;28;45465;-64
2022/04/24 10:42:44;;;;;;;;;1.25;1.00;;;;;14.69;57.61;97957.88;5054694;28;45520;-64
2022/04/24 10:45:19;;;;;;;;;1.00;0.25;;;;;14.83;57.27;97963.00;5054891;28;46468;-64
2022/04/24 10:47:53;;;;;;;;;0.60;0.60;;;;;14.91;56.00;97960.63;5054951;28;45320;-64
2022/04/24 10:50:20;;;;;;;;;0.00;0.00;;;;;14.99;56.10;97952.91;5054871;28;45319;-64
2022/04/24 10:52:49;;;;;;;;;0.00;0.00;;;;;15.13;55.97;97950.03;5054548;28;45327;-64
2022/04/24 10:55:19;;;;;;;;;0.00;0.00;;;;;15.24;55.96;97950.06;5051922;28;45484;-64
2022/04/24 10:57:48;;;;;;;;;0.00;0.00;;;;;15.37;55.02;97957.91;5054467;28;45289;-64
2022/04/24 11:00:22;;;;;;;;;0.00;0.00;;;;;15.47;54.48;97958.03;5054593;28;45499;-64
2022/04/24 11:02:49;;;;;;;;;0.25;0.25;;;;;15.58;54.11;97955.44;5054185;28;45402;-64
2022/04/24 11:05:22;;;;;;;;;0.00;0.00;;;;;15.69;53.95;97953.59;5054592;28;46400;-64
2022/04/24 11:07:48;;;;;;;;;0.00;0.00;;;;;15.76;53.48;97961.91;5053890;28;45533;-65
2022/04/24 11:10:20;;;;;;;;;0.00;0.00;;;;;15.74;53.19;97966.53;5054641;28;45530;-64
2022/04/24 11:12:48;;;;;;;;;0.00;0.00;;;;;15.76;53.66;97961.06;5058721;28;45381;-65
2022/04/24 11:15:15;;;;;;;;;0.20;0.20;;;;;15.87;53.29;97961.06;5054247;28;46179;-65
2022/04/24 11:17:41;;;;;;;;;0.40;0.40;;;;;16.02;54.12;97963.34;5053131;28;45376;-64
2022/04/24 11:20:13;;;;;;;;;0.00;0.00;;;;;16.23;53.81;97958.09;5052286;28;45487;-64
2022/04/24 11:22:51;;;;;;;;;0.75;0.75;;;;;16.45;53.14;97967.81;5039200;28;46315;-65
2022/04/24 11:25:19;;;;;;;;;1.00;1.00;;;;;16.63;53.19;97958.34;5049211;28;45594;-65
2022/04/24 11:27:50;;;;;;;;;0.20;0.20;;;;;16.80;52.79;97962.25;5052857;28;45389;-65
2022/04/24 11:30:21;;;;;;;;;0.00;0.00;;;;;16.98;52.47;97959.84;5052609;28;45404;-64
2022/04/24 11:33:00;;;;;;;;;0.00;0.00;;;;;17.15;51.58;97945.94;5051508;28;45643;-64
2022/04/24 11:35:28;;;;;;;;;0.00;0.00;;;;;17.32;51.63;97952.50;5050747;28;45614;-64
2022/04/24 11:37:54;;;;;;;;;0.00;0.00;;;;;17.53;50.62;97947.97;5052602;28;45366;-65